Time;durP1;ratioP1;P1;durP2;ratioP2;P2;SDS_P1;SDS_P2;PMS_P1;PMS_P2;Temp;Humidity;BMP_temperature;BMP_pressure;BME280_temperature;BME280_humidity;BME280_pressure;Samples;Min_cycle;Max_cycle;Signal;HPM_P1;HPM_P2
2023/12/20 00:00:45;;;;;;;11.70;7.20;;;;;;;7.69;100.00;99805.59;5053734;28;20036;-80
2023/12/20 00:03:16;;;;;;;12.32;7.97;;;;;;;7.61;100.00;99793.81;5052285;28;20110;-80
2023/12/20 00:05:41;;;;;;;14.10;8.70;;;;;;;7.64;100.00;99800.56;5053763;28;20029;-80
2023/12/20 00:08:06;;;;;;;12.63;7.47;;;;;;;7.67;100.00;99796.78;5052312;28;20350;-79
2023/12/20 00:10:33;;;;;;;11.35;7.32;;;;;;;7.68;100.00;99792.63;5054700;28;20430;-78
2023/12/20 00:12:58;;;;;;;13.18;7.85;;;;;;;7.64;100.00;99781.47;5054789;28;20078;-79
2023/12/20 00:15:24;;;;;;;13.05;8.38;;;;;;;7.63;100.00;99774.19;5053768;28;20045;-79
2023/12/20 00:17:50;;;;;;;13.50;8.10;;;;;;;7.62;100.00;99769.78;5053326;28;20465;-79
2023/12/20 00:20:17;;;;;;;11.57;8.43;;;;;;;7.74;100.00;99785.00;5054790;28;20303;-79
2023/12/20 00:22:43;;;;;;;13.90;8.15;;;;;;;7.69;100.00;99783.63;5053003;28;20088;-80
2023/12/20 00:25:08;;;;;;;12.15;8.57;;;;;;;7.70;100.00;99796.59;5052917;28;20124;-78
2023/12/20 00:27:34;;;;;;;10.88;8.02;;;;;;;7.66;100.00;99792.34;5053381;28;20108;-79
2023/12/20 00:30:00;;;;;;;11.52;8.25;;;;;;;7.63;100.00;99801.84;5051972;28;20044;-79
2023/12/20 00:32:28;;;;;;;15.45;8.15;;;;;;;7.57;100.00;99784.66;5052093;28;20029;-77
2023/12/20 00:34:55;;;;;;;12.73;8.07;;;;;;;7.54;100.00;99794.16;5054596;28;20013;-77
2023/12/20 00:37:21;;;;;;;11.38;7.93;;;;;;;7.50;100.00;99787.88;5061687;28;20025;-77
2023/12/20 00:39:55;;;;;;;11.57;8.57;;;;;;;7.49;100.00;99789.94;5064167;28;20028;-78
2023/12/20 00:42:20;;;;;;;13.52;8.93;;;;;;;7.46;100.00;99778.75;5059539;28;20075;-78
2023/12/20 00:44:50;;;;;;;13.10;8.65;;;;;;;7.44;100.00;99781.28;5056459;28;20025;-78
2023/12/20 00:47:18;;;;;;;14.73;9.40;;;;;;;7.39;100.00;99779.91;5053687;28;20021;-80
2023/12/20 00:49:43;;;;;;;11.88;8.25;;;;;;;7.42;100.00;99772.47;5053464;28;20436;-78
2023/12/20 00:52:08;;;;;;;14.93;10.00;;;;;;;7.43;100.00;99783.34;5052107;28;20021;-79
2023/12/20 00:54:39;;;;;;;17.77;10.80;;;;;;;7.44;100.00;99778.44;5053140;28;20079;-76
2023/12/20 00:57:10;;;;;;;14.80;10.18;;;;;;;7.51;100.00;99783.78;5052939;28;20104;-79
2023/12/20 00:59:36;;;;;;;16.45;10.32;;;;;;;7.55;100.00;99773.00;5051978;28;20033;-77
2023/12/20 01:02:01;;;;;;;15.93;10.68;;;;;;;7.53;100.00;99776.31;5053843;28;20509;-79
2023/12/20 01:04:28;;;;;;;19.73;10.65;;;;;;;7.49;100.00;99778.56;5052517;28;20039;-78
2023/12/20 01:06:56;;;;;;;21.98;11.50;;;;;;;7.47;100.00;99769.72;5052741;28;20094;-78
2023/12/20 01:09:27;;;;;;;19.60;10.50;;;;;;;7.44;100.00;99767.06;5053890;28;20025;-79
2023/12/20 01:11:55;;;;;;;16.27;11.07;;;;;;;7.38;100.00;99772.63;5053697;28;20032;-79
2023/12/20 01:14:21;;;;;;;16.08;10.70;;;;;;;7.34;100.00;99769.19;5053656;28;20025;-80
2023/12/20 01:16:47;;;;;;;18.75;11.65;;;;;;;7.38;100.00;99763.31;5053366;28;20028;-78
2023/12/20 01:19:18;;;;;;;16.17;10.73;;;;;;;7.37;100.00;99762.53;5051175;28;20024;-78
2023/12/20 01:21:45;;;;;;;18.98;11.57;;;;;;;7.33;100.00;99764.00;5052099;28;20052;-78
2023/12/20 01:24:11;;;;;;;15.27;10.57;;;;;;;7.35;100.00;99761.47;5051449;28;20509;-79
2023/12/20 01:26:39;;;;;;;19.60;11.95;;;;;;;7.37;100.00;99764.63;5052084;28;20119;-79
2023/12/20 01:29:09;;;;;;;15.73;10.60;;;;;;;7.42;100.00;99769.63;5052405;28;20045;-77
2023/12/20 01:31:35;;;;;;;17.05;11.32;;;;;;;7.42;100.00;99758.25;5050238;28;20045;-79
2023/12/20 01:34:07;;;;;;;17.27;12.27;;;;;;;7.44;100.00;99764.22;5052975;28;20056;-79
2023/12/20 01:36:32;;;;;;;16.70;11.52;;;;;;;7.43;100.00;99760.59;5052064;28;20110;-79
2023/12/20 01:39:00;;;;;;;19.83;12.43;;;;;;;7.43;100.00;99748.44;5050031;28;20068;-78
2023/12/20 01:41:27;;;;;;;18.80;11.90;;;;;;;7.40;100.00;99752.28;5034246;28;20056;-78
2023/12/20 01:43:56;;;;;;;16.65;12.27;;;;;;;7.42;100.00;99750.50;5052141;28;20021;-77
2023/12/20 01:46:23;;;;;;;17.08;12.13;;;;;;;7.41;100.00;99746.09;5050742;28;20162;-78
2023/12/20 01:48:49;;;;;;;19.48;12.43;;;;;;;7.37;100.00;99731.28;5050755;28;20520;-78
2023/12/20 01:51:29;;;;;;;18.27;10.98;;;;;;;7.40;100.00;99741.69;5034249;28;20037;-78
2023/12/20 01:54:11;;;;;;;16.35;10.35;;;;;;;7.41;100.00;99722.56;5051748;28;20142;-78
2023/12/20 01:56:38;;;;;;;14.32;8.65;;;;;;;7.38;100.00;99720.69;5052079;28;20075;-78
2023/12/20 01:59:04;;;;;;;12.40;8.57;;;;;;;7.38;100.00;99718.63;5053372;28;20102;-78
2023/12/20 02:01:32;;;;;;;14.73;9.10;;;;;;;7.42;100.00;99724.16;5051163;28;20117;-78
2023/12/20 02:04:00;;;;;;;12.82;9.45;;;;;;;7.39;100.00;99725.13;5052935;28;20069;-79
2023/12/20 02:06:30;;;;;;;14.55;9.07;;;;;;;7.37;100.00;99713.47;5053142;28;20044;-78
2023/12/20 02:09:05;;;;;;;14.40;9.82;;;;;;;7.41;100.00;99712.00;5051993;28;20024;-79
2023/12/20 02:11:33;;;;;;;11.70;8.82;;;;;;;7.46;100.00;99705.66;5056486;28;20053;-78
2023/12/20 02:13:59;;;;;;;12.85;9.05;;;;;;;7.49;100.00;99713.19;5057023;28;20025;-77
2023/12/20 02:16:25;;;;;;;13.35;9.18;;;;;;;7.52;100.00;99717.88;5056872;28;20037;-78
2023/12/20 02:18:51;;;;;;;14.32;8.77;;;;;;;7.56;100.00;99722.63;5056671;28;20082;-78
2023/12/20 02:21:18;;;;;;;12.57;9.13;;;;;;;7.56;100.00;99714.88;5056667;28;20519;-78
2023/12/20 02:23:43;;;;;;;14.40;7.93;;;;;;;7.54;100.00;99700.34;5056786;28;20105;-79
2023/12/20 02:26:10;;;;;;;17.10;9.10;;;;;;;7.60;100.00;99704.09;5056811;28;20104;-78
2023/12/20 02:28:37;;;;;;;12.82;8.23;;;;;;;7.63;100.00;99705.16;5056694;28;20116;-78
2023/12/20 02:31:02;;;;;;;14.85;8.82;;;;;;;7.66;100.00;99705.00;5038938;28;20029;-78
2023/12/20 02:33:29;;;;;;;16.23;9.25;;;;;;;7.71;100.00;99700.69;5055297;28;20155;-78
2023/12/20 02:35:55;;;;;;;11.82;8.18;;;;;;;7.73;100.00;99703.81;5056387;28;20067;-79
2023/12/20 02:38:22;;;;;;;12.00;8.70;;;;;;;7.74;100.00;99702.53;5056779;28;20111;-78
2023/12/20 02:40:48;;;;;;;13.85;8.70;;;;;;;7.76;100.00;99708.53;5056586;28;20029;-78
2023/12/20 02:43:15;;;;;;;13.80;9.20;;;;;;;7.71;100.00;99689.31;5056447;28;20031;-78
2023/12/20 02:45:43;;;;;;;12.93;8.73;;;;;;;7.75;100.00;99690.69;5055286;28;20126;-78
2023/12/20 02:48:09;;;;;;;19.05;8.98;;;;;;;7.81;100.00;99694.44;5056782;28;20117;-79
2023/12/20 02:50:35;;;;;;;12.00;8.50;;;;;;;7.80;100.00;99700.59;5056583;28;20032;-77
2023/12/20 02:53:00;;;;;;;12.05;7.75;;;;;;;7.76;100.00;99683.72;5056177;28;20044;-79
2023/12/20 02:55:27;;;;;;;11.32;7.60;;;;;;;7.76;100.00;99685.78;5056796;28;20021;-78
2023/12/20 02:57:52;;;;;;;10.82;8.18;;;;;;;7.76;100.00;99680.88;5056739;28;20140;-78
2023/12/20 03:00:17;;;;;;;14.82;8.23;;;;;;;7.75;100.00;99681.38;5055154;28;20478;-79
2023/12/20 03:02:45;;;;;;;11.48;7.55;;;;;;;7.75;100.00;99682.16;5054911;28;20025;-77
2023/12/20 03:05:12;;;;;;;10.43;7.88;;;;;;;7.70;100.00;99665.00;5056504;28;20470;-77
2023/12/20 03:07:38;;;;;;;10.70;7.63;;;;;;;7.64;100.00;99673.41;5056283;28;20024;-78
2023/12/20 03:10:07;;;;;;;10.45;7.35;;;;;;;7.62;100.00;99669.50;5056191;28;20020;-78
2023/12/20 03:12:40;;;;;;;11.88;7.85;;;;;;;7.55;100.00;99664.97;5055552;28;20017;-78
2023/12/20 03:15:11;;;;;;;10.25;7.35;;;;;;;7.60;100.00;99680.56;5054728;28;20024;-79
2023/12/20 03:17:36;;;;;;;9.02;6.53;;;;;;;7.58;100.00;99683.09;5054554;28;20032;-77
2023/12/20 03:20:16;;;;;;;10.20;6.75;;;;;;;7.61;100.00;99679.28;5053302;28;20041;-78
2023/12/20 03:22:42;;;;;;;8.70;6.47;;;;;;;7.57;100.00;99668.09;5052052;28;20041;-78
2023/12/20 03:25:09;;;;;;;7.85;6.20;;;;;;;7.66;100.00;99678.63;5053348;28;20123;-79
2023/12/20 03:27:38;;;;;;;8.10;6.05;;;;;;;7.56;100.00;99665.75;5054408;28;20052;-78
2023/12/20 03:30:04;;;;;;;7.78;5.20;;;;;;;7.58;100.00;99671.72;5053143;28;20051;-78
2023/12/20 03:32:31;;;;;;;8.73;5.28;;;;;;;7.52;100.00;99665.97;5054341;28;20033;-79
2023/12/20 03:35:00;;;;;;;5.85;4.85;;;;;;;7.50;100.00;99674.97;5053576;28;20028;-77
2023/12/20 03:37:34;;;;;;;7.72;4.60;;;;;;;7.49;100.00;99684.75;5054316;28;20025;-78
2023/12/20 03:40:01;;;;;;;8.00;5.13;;;;;;;7.44;100.00;99685.44;5052762;28;20060;-78
2023/12/20 03:42:26;;;;;;;6.28;4.88;;;;;;;7.44;100.00;99676.91;5036441;28;20033;-78
2023/12/20 03:44:55;;;;;;;9.07;5.45;;;;;;;7.39;100.00;99685.31;5036439;28;20044;-78
2023/12/20 03:47:25;;;;;;;6.00;4.93;;;;;;;7.25;100.00;99672.66;5052857;28;20036;-79
2023/12/20 03:49:54;;;;;;;7.20;4.53;;;;;;;7.25;100.00;99684.00;5054834;28;20100;-76
2023/12/20 03:52:20;;;;;;;7.10;4.78;;;;;;;7.23;100.00;99682.91;5054210;28;20040;-77
2023/12/20 03:54:46;;;;;;;7.03;4.85;;;;;;;7.21;100.00;99696.84;5054165;28;20028;-78
2023/12/20 03:57:14;;;;;;;7.15;4.88;;;;;;;7.15;100.00;99681.72;5053882;28;20135;-79
2023/12/20 03:59:40;;;;;;;4.80;4.30;;;;;;;7.13;100.00;99689.97;5055502;28;20462;-77
2023/12/20 04:02:08;;;;;;;6.55;4.47;;;;;;;7.03;100.00;99684.31;5056004;28;20091;-78
2023/12/20 04:04:35;;;;;;;6.90;4.63;;;;;;;7.05;100.00;99686.69;5055141;28;20102;-78
2023/12/20 04:07:01;;;;;;;7.85;4.40;;;;;;;7.06;100.00;99691.88;5054763;28;20032;-78
2023/12/20 04:09:29;;;;;;;7.22;4.90;;;;;;;7.05;100.00;99690.31;5054997;28;20071;-79
2023/12/20 04:11:55;;;;;;;6.60;4.05;;;;;;;7.02;100.00;99685.63;5054751;28;20059;-78
2023/12/20 04:14:22;;;;;;;5.18;4.07;;;;;;;7.05;100.00;99686.69;5053376;28;20026;-78
2023/12/20 04:16:49;;;;;;;6.35;4.00;;;;;;;7.04;100.00;99683.06;5054820;28;20381;-80
2023/12/20 04:19:16;;;;;;;5.45;3.85;;;;;;;6.95;100.00;99665.28;5053339;28;20040;-78
2023/12/20 04:21:41;;;;;;;5.57;4.07;;;;;;;6.99;100.00;99680.09;5053477;28;20447;-78
2023/12/20 04:24:08;;;;;;;4.95;3.33;;;;;;;6.93;100.00;99682.81;5053608;28;20071;-78
2023/12/20 04:26:35;;;;;;;4.47;3.03;;;;;;;6.84;100.00;99685.72;5054715;28;20025;-77
2023/12/20 04:29:01;;;;;;;4.82;2.70;;;;;;;6.76;100.00;99678.03;5054532;28;20386;-78
2023/12/20 04:31:29;;;;;;;5.03;2.78;;;;;;;6.65;100.00;99682.19;5054257;28;20028;-78
2023/12/20 04:33:55;;;;;;;3.70;2.60;;;;;;;6.66;100.00;99695.13;5054158;28;20480;-76
2023/12/20 04:36:21;;;;;;;3.88;2.58;;;;;;;6.59;100.00;99681.28;5054453;28;20029;-78
2023/12/20 04:38:46;;;;;;;3.35;1.73;;;;;;;6.52;100.00;99678.00;5053191;28;20047;-78
2023/12/20 04:41:15;;;;;;;3.17;2.30;;;;;;;6.55;100.00;99683.50;5054212;28;20120;-76
2023/12/20 04:43:41;;;;;;;2.20;1.60;;;;;;;6.57;100.00;99685.88;5052927;28;20060;-77
2023/12/20 04:46:07;;;;;;;1.70;1.60;;;;;;;6.46;100.00;99677.09;5052982;28;20106;-78
2023/12/20 04:48:35;;;;;;;1.58;1.35;;;;;;;6.37;100.00;99677.94;5054059;28;20033;-79
2023/12/20 04:51:01;;;;;;;3.15;1.38;;;;;;;6.27;100.00;99675.56;5052678;28;20474;-77
2023/12/20 04:53:27;;;;;;;2.30;1.38;;;;;;;6.20;100.00;99679.53;5052920;28;20029;-78
2023/12/20 04:55:54;;;;;;;1.52;1.00;;;;;;;6.19;100.00;99664.56;5052439;28;20024;-78
2023/12/20 04:58:21;;;;;;;1.00;0.90;;;;;;;6.17;100.00;99661.44;5050570;28;20102;-78
2023/12/20 05:01:08;;;;;;;1.00;1.00;;;;;;;6.15;100.00;99666.00;5054351;28;20037;-78
2023/12/20 05:03:35;;;;;;;0.95;0.65;;;;;;;6.11;100.00;99665.38;5054272;28;20036;-79
2023/12/20 05:06:01;;;;;;;0.80;0.80;;;;;;;6.06;100.00;99666.03;5053245;28;20493;-79
2023/12/20 05:08:29;;;;;;;1.50;0.75;;;;;;;5.96;100.00;99661.66;5053959;28;20033;-79
2023/12/20 05:10:55;;;;;;;1.77;0.93;;;;;;;5.97;100.00;99657.56;5053838;28;20029;-79
2023/12/20 05:13:22;;;;;;;1.00;0.80;;;;;;;5.95;100.00;99660.06;5054137;28;20029;-81
2023/12/20 05:15:47;;;;;;;1.40;0.82;;;;;;;5.94;100.00;99667.81;5053681;28;20044;-79
2023/12/20 05:18:13;;;;;;;2.13;1.13;;;;;;;5.89;100.00;99647.81;5052540;28;20029;-79
2023/12/20 05:20:40;;;;;;;2.88;1.70;;;;;;;5.93;100.00;99657.72;5051987;28;20064;-79
2023/12/20 05:23:07;;;;;;;2.42;1.02;;;;;;;5.97;100.00;99660.38;5052103;28;20135;-77
2023/12/20 05:25:33;;;;;;;1.73;1.33;;;;;;;5.97;100.00;99668.91;5052278;28;20355;-78
2023/12/20 05:27:59;;;;;;;2.90;1.10;;;;;;;5.93;100.00;99668.28;5052384;28;20047;-78
2023/12/20 05:30:27;;;;;;;4.22;1.83;;;;;;;5.96;100.00;99670.16;5053342;28;20040;-79
2023/12/20 05:32:54;;;;;;;2.05;1.30;;;;;;;6.02;100.00;99660.53;5053432;28;20029;-78
2023/12/20 05:35:23;;;;;;;2.42;1.20;;;;;;;6.07;100.00;99668.38;5053563;28;20028;-79
2023/12/20 05:37:49;;;;;;;1.95;1.42;;;;;;;6.09;100.00;99671.53;5053492;28;20045;-77
2023/12/20 05:40:15;;;;;;;1.42;1.30;;;;;;;6.09;100.00;99674.34;5053386;28;20035;-78
2023/12/20 05:42:43;;;;;;;2.38;1.70;;;;;;;6.10;100.00;99675.94;5051811;28;20041;-77
2023/12/20 05:45:09;;;;;;;3.42;1.80;;;;;;;6.12;100.00;99676.25;5052927;28;20058;-77
2023/12/20 05:47:34;;;;;;;4.70;2.20;;;;;;;6.17;100.00;99674.81;5053060;28;20127;-77
2023/12/20 05:50:09;;;;;;;3.35;2.05;;;;;;;6.21;100.00;99679.06;5053173;28;20028;-77
2023/12/20 05:52:35;;;;;;;6.32;2.30;;;;;;;6.16;100.00;99667.56;5053313;28;20108;-78
2023/12/20 05:55:03;;;;;;;5.03;2.40;;;;;;;6.24;100.00;99680.13;5053407;28;20145;-76
2023/12/20 05:57:30;;;;;;;3.72;2.35;;;;;;;6.17;100.00;99681.28;5052906;28;20029;-77
2023/12/20 05:59:57;;;;;;;5.07;2.50;;;;;;;6.17;100.00;99683.31;5053014;28;20427;-76
2023/12/20 06:02:25;;;;;;;4.88;1.98;;;;;;;6.16;100.00;99667.56;5053443;28;20033;-77
2023/12/20 06:04:50;;;;;;;4.20;2.35;;;;;;;6.21;100.00;99667.72;5053104;28;20029;-78
2023/12/20 06:07:24;;;;;;;4.03;2.35;;;;;;;6.15;100.00;99672.44;5052883;28;20048;-79
2023/12/20 06:09:50;;;;;;;2.72;1.83;;;;;;;6.06;100.00;99678.16;5052900;28;20080;-79
2023/12/20 06:12:32;;;;;;;6.00;2.20;;;;;;;6.02;100.00;99666.19;5053155;28;20466;-77
2023/12/20 06:14:58;;;;;;;;;;;;;;;6.01;100.00;99672.34;5054008;28;20114;-84
2023/12/20 06:17:24;;;;;;;3.25;2.20;;;;;;;6.05;100.00;99665.22;5053628;28;19909;-83
2023/12/20 06:19:54;;;;;;;4.13;2.45;;;;;;;6.07;100.00;99679.75;5035266;28;20048;-85
2023/12/20 06:22:20;;;;;;;7.70;1.85;;;;;;;6.06;100.00;99677.38;5051498;28;20055;-85
2023/12/20 06:24:47;;;;;;;3.17;2.00;;;;;;;6.08;100.00;99674.84;5052821;28;20132;-80
2023/12/20 06:27:14;;;;;;;2.97;2.20;;;;;;;6.11;100.00;99657.66;5052408;28;20033;-84
2023/12/20 06:29:41;;;;;;;2.70;1.83;;;;;;;6.16;100.00;99662.69;5053020;28;20526;-82
2023/12/20 06:32:07;;;;;;;3.17;2.30;;;;;;;6.16;100.00;99670.41;5051795;28;20047;-84
2023/12/20 06:34:32;;;;;;;3.22;2.08;;;;;;;6.23;100.00;99670.06;5051580;28;20082;-80
2023/12/20 06:36:59;;;;;;;4.80;2.95;;;;;;;6.25;100.00;99665.47;5034354;28;20036;-82
2023/12/20 06:39:25;;;;;;;2.30;2.10;;;;;;;6.28;100.00;99669.44;5052793;28;20029;-80
2023/12/20 06:42:06;;;;;;;3.22;2.00;;;;;;;6.27;100.00;99682.03;5051931;28;20110;-79
2023/12/20 06:44:32;;;;;;;3.28;2.25;;;;;;;6.22;100.00;99665.66;5053714;28;20119;-80
2023/12/20 06:46:58;;;;;;;6.32;2.47;;;;;;;6.25;100.00;99679.66;5052992;28;20029;-82
2023/12/20 06:49:25;;;;;;;3.80;2.78;;;;;;;6.23;100.00;99675.75;5052991;28;20036;-81
2023/12/20 06:51:53;;;;;;;6.38;2.50;;;;;;;6.28;100.00;99680.78;5052619;28;20463;-79
2023/12/20 06:54:18;;;;;;;7.20;2.63;;;;;;;6.20;100.00;99676.69;5052528;28;20538;-80
2023/12/20 06:56:45;;;;;;;3.33;2.58;;;;;;;6.22;100.00;99674.16;5053218;28;20104;-80
2023/12/20 06:59:11;;;;;;;4.30;2.72;;;;;;;6.28;100.00;99680.00;5051275;28;20079;-82
2023/12/20 07:01:38;;;;;;;3.60;2.50;;;;;;;6.20;100.00;99674.63;5057474;28;20032;-84
2023/12/20 07:04:04;;;;;;;5.20;2.80;;;;;;;6.20;100.00;99685.97;5057242;28;20035;-83
2023/12/20 07:06:30;;;;;;;4.30;2.50;;;;;;;6.19;100.00;99684.41;5055995;28;20117;-85
2023/12/20 07:08:55;;;;;;;2.85;1.95;;;;;;;6.19;100.00;99687.25;5055845;28;20043;-84
2023/12/20 07:11:21;;;;;;;6.20;2.25;;;;;;;6.14;100.00;99678.63;5056928;28;20414;-83
2023/12/20 07:13:52;;;;;;;4.82;2.00;;;;;;;6.15;100.00;99685.84;5055362;28;20461;-83
2023/12/20 07:16:18;;;;;;;5.25;2.50;;;;;;;6.14;100.00;99692.81;5055348;28;20104;-83
2023/12/20 07:18:57;;;;;;;3.72;2.30;;;;;;;6.22;100.00;99696.88;5055093;28;20108;-83
2023/12/20 07:21:23;;;;;;;4.18;2.60;;;;;;;6.24;100.00;99682.97;5051742;28;20098;-83
2023/12/20 07:24:01;;;;;;;3.22;2.13;;;;;;;6.23;100.00;99678.59;5054947;28;20127;-83
2023/12/20 07:26:26;;;;;;;7.90;2.35;;;;;;;6.24;100.00;99697.94;5054785;28;20040;-83
2023/12/20 07:28:54;;;;;;;8.85;3.30;;;;;;;6.32;100.00;99704.13;5054603;28;20033;-83
2023/12/20 07:34:50;;;;;;;4.68;2.20;;;;;;;6.30;100.00;99692.44;5054739;28;20077;-83
2023/12/20 07:37:17;;;;;;;4.72;2.40;;;;;;;6.32;100.00;99695.59;5053598;28;20045;-82
2023/12/20 07:39:42;;;;;;;6.45;2.80;;;;;;;6.31;100.00;99687.56;5054349;28;20059;-82
2023/12/20 07:42:08;;;;;;;3.20;2.20;;;;;;;6.40;100.00;99696.81;5056113;28;20065;-83
2023/12/20 07:44:38;;;;;;;4.15;2.38;;;;;;;6.45;100.00;99693.31;5038239;28;20071;-83
2023/12/20 07:47:05;;;;;;;2.90;2.15;;;;;;;6.48;100.00;99702.94;5055616;28;20082;-83
2023/12/20 07:49:31;;;;;;;3.63;1.92;;;;;;;6.46;100.00;99703.41;5056922;28;20037;-82
2023/12/20 07:51:57;;;;;;;3.67;2.20;;;;;;;6.45;100.00;99693.31;5038884;28;20038;-82
2023/12/20 07:54:23;;;;;;;5.47;2.25;;;;;;;6.38;100.00;99699.38;5039429;28;20033;-82
2023/12/20 07:56:49;;;;;;;2.05;1.80;;;;;;;6.35;100.00;99716.53;5060060;28;20063;-82
2023/12/20 07:59:14;;;;;;;2.42;1.83;;;;;;;6.35;100.00;99705.19;5062500;28;20025;-83
2023/12/20 08:01:42;;;;;;;5.47;2.45;;;;;;;6.41;100.00;99703.28;5064517;28;20025;-82
2023/12/20 08:04:07;;;;;;;4.60;2.08;;;;;;;6.34;100.00;99715.75;5068293;28;20115;-82
2023/12/20 08:06:35;;;;;;;3.65;2.17;;;;;;;6.37;100.00;99706.31;5065039;28;20068;-82
2023/12/20 08:09:00;;;;;;;2.72;1.90;;;;;;;6.40;100.00;99701.69;5057041;28;20024;-84
2023/12/20 08:11:25;;;;;;;9.02;2.15;;;;;;;6.50;100.00;99709.69;5054220;28;20102;-83
2023/12/20 08:13:51;;;;;;;6.95;2.03;;;;;;;6.50;100.00;99712.53;5053956;28;20111;-82
2023/12/20 08:16:18;;;;;;;6.68;2.25;;;;;;;6.54;100.00;99712.34;5054938;28;20470;-83
2023/12/20 08:18:44;;;;;;;8.68;2.78;;;;;;;6.51;100.00;99701.97;5054836;28;20041;-83
2023/12/20 08:21:11;;;;;;;4.75;1.75;;;;;;;6.52;100.00;99707.19;5054276;28;20041;-83
2023/12/20 08:23:38;;;;;;;3.50;1.98;;;;;;;6.43;100.00;99703.59;5054765;28;20547;-83
2023/12/20 08:26:08;;;;;;;4.93;1.95;;;;;;;6.47;100.00;99716.34;5053718;28;20060;-84
2023/12/20 08:28:34;;;;;;;3.80;1.90;;;;;;;6.39;100.00;99715.09;5054245;28;20041;-83
2023/12/20 08:31:00;;;;;;;2.78;1.92;;;;;;;6.50;100.00;99715.38;5055676;28;20541;-84
2023/12/20 08:33:27;;;;;;;2.72;1.90;;;;;;;6.55;100.00;99723.25;5062867;28;20032;-84
2023/12/20 08:35:53;;;;;;;4.72;1.80;;;;;;;6.62;100.00;99716.44;5060067;28;20056;-84
2023/12/20 08:38:18;;;;;;;3.20;1.88;;;;;;;6.57;100.00;99706.53;5053655;28;20465;-83
2023/12/20 08:40:44;;;;;;;4.32;1.58;;;;;;;6.68;100.00;99725.88;5055147;28;20040;-82
2023/12/20 08:43:11;;;;;;;2.88;1.75;;;;;;;6.67;100.00;99721.47;5053786;28;20422;-83
2023/12/20 08:45:36;;;;;;;3.13;1.80;;;;;;;6.68;100.00;99723.81;5053568;28;20040;-83
2023/12/20 08:48:04;;;;;;;2.50;1.55;;;;;;;6.73;100.00;99732.97;5054455;28;20048;-83
2023/12/20 08:50:31;;;;;;;4.55;1.70;;;;;;;6.79;100.00;99728.16;5036562;28;20029;-83
2023/12/20 08:52:58;;;;;;;4.93;2.00;;;;;;;6.87;100.00;99735.09;5036150;28;20029;-83
2023/12/20 08:55:24;;;;;;;3.00;1.80;;;;;;;6.78;100.00;99730.22;5054182;28;20029;-83
2023/12/20 08:57:50;;;;;;;4.10;1.58;;;;;;;6.80;100.00;99724.88;5053987;28;20087;-83
2023/12/20 09:00:19;;;;;;;3.25;1.73;;;;;;;6.89;100.00;99739.00;5054150;28;20037;-83
2023/12/20 09:02:46;;;;;;;2.60;1.25;;;;;;;6.86;100.00;99734.31;5054131;28;20035;-83
2023/12/20 09:05:11;;;;;;;3.38;1.67;;;;;;;6.87;100.00;99737.94;5054599;28;20037;-82
2023/12/20 09:07:37;;;;;;;2.42;1.40;;;;;;;6.89;100.00;99736.16;5054814;28;20047;-83
2023/12/20 09:10:03;;;;;;;1.83;1.35;;;;;;;6.92;100.00;99734.44;5052819;28;20128;-82
2023/12/20 09:12:31;;;;;;;2.05;1.35;;;;;;;6.89;100.00;99732.53;5054288;28;20120;-84
2023/12/20 09:14:58;;;;;;;2.63;1.60;;;;;;;6.85;100.00;99735.56;5053057;28;20142;-84
2023/12/20 09:17:23;;;;;;;2.22;1.60;;;;;;;6.94;100.00;99738.34;5054130;28;20529;-83
2023/12/20 09:19:52;;;;;;;2.05;1.30;;;;;;;6.80;100.00;99729.75;5057854;28;20056;-82
2023/12/20 09:22:18;;;;;;;2.42;1.30;;;;;;;6.91;100.00;99738.53;5065461;28;20083;-82
2023/12/20 09:24:44;;;;;;;6.47;1.67;;;;;;;6.82;100.00;99730.84;5057140;28;20089;-82
2023/12/20 09:27:10;;;;;;;3.40;1.50;;;;;;;6.80;100.00;99721.22;5060458;28;20089;-82
2023/12/20 09:29:37;;;;;;;2.90;1.55;;;;;;;6.85;100.00;99732.72;5053489;28;20143;-83
2023/12/20 09:32:03;;;;;;;1.95;1.20;;;;;;;6.80;100.00;99735.44;5056551;28;20076;-83
2023/12/20 09:34:30;;;;;;;6.20;1.75;;;;;;;6.95;100.00;99750.50;5058239;28;20449;-83
2023/12/20 09:36:56;;;;;;;3.15;1.67;;;;;;;6.97;100.00;99737.41;5053402;28;20035;-82
2023/12/20 09:39:23;;;;;;;2.05;1.30;;;;;;;7.13;100.00;99744.69;5053894;28;20099;-86
2023/12/20 09:42:01;;;;;;;2.33;1.48;;;;;;;7.22;100.00;99756.03;5052662;28;20029;-83
2023/12/20 09:44:36;;;;;;;1.63;1.08;;;;;;;7.31;100.00;99758.03;5053927;28;20033;-84
2023/12/20 09:47:04;;;;;;;3.47;1.65;;;;;;;7.42;100.00;99750.50;5053635;28;20104;-83
2023/12/20 09:49:30;;;;;;;2.55;1.20;;;;;;;7.39;100.00;99742.94;5052052;28;20037;-83
2023/12/20 09:51:56;;;;;;;2.92;1.63;;;;;;;7.49;100.00;99735.94;5052210;28;20120;-82
2023/12/20 09:54:23;;;;;;;1.52;1.23;;;;;;;7.63;100.00;99733.59;5052161;28;20065;-85
2023/12/20 09:56:50;;;;;;;1.70;1.48;;;;;;;7.77;100.00;99738.53;5052210;28;20055;-83
2023/12/20 09:59:16;;;;;;;3.70;1.33;;;;;;;7.78;100.00;99731.56;5053966;28;20099;-84
2023/12/20 10:01:42;;;;;;;7.82;1.52;;;;;;;7.92;100.00;99727.97;5053858;28;20107;-83
2023/12/20 10:04:12;;;;;;;4.50;2.10;;;;;;;8.02;100.00;99735.13;5051990;28;20090;-83
2023/12/20 10:06:44;;;;;;;3.45;1.40;;;;;;;7.97;100.00;99727.28;5035322;28;20055;-81
2023/12/20 10:09:11;;;;;;;6.07;1.75;;;;;;;7.98;100.00;99721.09;5034748;28;20143;-83
2023/12/20 10:11:37;;;;;;;2.42;1.55;;;;;;;7.92;100.00;99733.66;5051772;28;20438;-82
2023/12/20 10:14:04;;;;;;;2.75;1.50;;;;;;;8.02;100.00;99722.97;5018534;28;20029;-83
2023/12/20 10:16:32;;;;;;;2.42;1.48;;;;;;;7.91;100.00;99726.41;5053109;28;20075;-84
2023/12/20 10:18:58;;;;;;;3.38;1.48;;;;;;;7.90;100.00;99724.84;5051313;28;20494;-84
2023/12/20 10:21:28;;;;;;;2.13;1.48;;;;;;;7.94;100.00;99720.53;5052598;28;20494;-83
2023/12/20 10:23:56;;;;;;;4.47;1.70;;;;;;;7.96;100.00;99717.19;5053067;28;20029;-83
2023/12/20 10:26:23;;;;;;;3.15;1.80;;;;;;;7.90;100.00;99734.16;5035072;28;20048;-83
2023/12/20 10:29:00;;;;;;;3.13;1.90;;;;;;;7.83;100.00;99731.69;5053173;28;20466;-83
2023/12/20 10:31:34;;;;;;;2.17;1.50;;;;;;;7.78;100.00;99720.19;5054420;28;20029;-83
2023/12/20 10:34:01;;;;;;;4.90;1.60;;;;;;;7.78;100.00;99723.03;5056944;28;20021;-83
2023/12/20 10:36:31;;;;;;;4.20;1.92;;;;;;;7.63;100.00;99727.91;5038839;28;20086;-84
2023/12/20 10:39:05;;;;;;;8.93;1.95;;;;;;;7.59;100.00;99727.31;5055150;28;20039;-83
2023/12/20 10:41:32;;;;;;;5.85;2.53;;;;;;;7.51;100.00;99722.03;5038608;28;20036;-83
2023/12/20 10:44:00;;;;;;;2.50;1.80;;;;;;;7.52;100.00;99725.66;5055887;28;20040;-82
2023/12/20 10:46:34;;;;;;;6.05;2.15;;;;;;;7.52;100.00;99732.09;5056916;28;20040;-84
2023/12/20 10:49:03;;;;;;;5.65;2.08;;;;;;;7.54;100.00;99728.78;5055649;28;20432;-84
2023/12/20 10:51:30;;;;;;;3.38;2.47;;;;;;;7.44;100.00;99733.75;5038794;28;20044;-84
2023/12/20 10:53:56;;;;;;;4.65;2.30;;;;;;;7.37;100.00;99727.66;5056840;28;20031;-84
2023/12/20 10:56:24;;;;;;;4.72;2.72;;;;;;;7.27;100.00;99726.94;5038702;28;20029;-83
2023/12/20 10:58:51;;;;;;;6.38;2.38;;;;;;;7.18;100.00;99723.34;5055300;28;20025;-84
2023/12/20 11:01:21;;;;;;;13.73;3.28;;;;;;;7.16;100.00;99715.34;5056765;28;20086;-83
2023/12/20 11:03:53;;;;;;;9.55;2.92;;;;;;;7.23;100.00;99697.91;5054935;28;20040;-83
2023/12/20 11:06:47;;;;;;;4.55;3.00;;;;;;;7.37;100.00;99699.25;5056244;28;20465;-84
2023/12/20 11:09:36;;;;;;;7.03;2.45;;;;;;;7.58;100.00;99695.25;5056258;28;20056;-84
2023/12/20 11:12:34;;;;;;;4.90;2.03;;;;;;;7.72;100.00;99682.34;5054643;28;20025;-83
2023/12/20 11:15:08;;;;;;;14.43;3.55;;;;;;;7.88;100.00;99691.19;5056146;28;20025;-83
2023/12/20 11:17:33;;;;;;;2.85;1.67;;;;;;;7.92;100.00;99697.47;5055090;28;20052;-83
2023/12/20 11:20:01;;;;;;;3.10;1.80;;;;;;;7.97;100.00;99698.81;5055890;28;20493;-84
2023/12/20 11:22:38;;;;;;;11.65;2.33;;;;;;;8.02;100.00;99689.59;5054148;28;20379;-83
2023/12/20 11:25:11;;;;;;;4.97;1.80;;;;;;;8.00;100.00;99695.03;5056270;28;20075;-84
2023/12/20 11:28:06;;;;;;;14.60;2.88;;;;;;;8.07;100.00;99688.94;5054874;28;20029;-83
2023/12/20 11:30:45;;;;;;;12.43;3.40;;;;;;;8.30;100.00;99670.22;5055660;28;20024;-83
2023/12/20 11:33:11;;;;;;;3.38;1.80;;;;;;;8.43;100.00;99664.19;5056117;28;20501;-85
2023/12/20 11:35:39;;;;;;;6.78;1.73;;;;;;;8.56;100.00;99659.72;5055494;28;20040;-83